Center Banner
 

Chief Wetona Challenge Trail Run

Overall Finish List

May 20, 2018


Results by Integrity Racing Integrity Racing
Chief Wetona 7 Mile Challenge

Chief Wetona 14 Mile Challenge

Place Name City Bib No Age Gender Age Group Total Time Pace
1 RYAN BAIR WEST CHESTER PA 9 31 M 1 Top Fin 1:50:44.04 7:55/M
2 EDDIE KRAFTCHISIN 332 47 M 1 Top Fin 1:55:29.04 8:15/M
3 MIKE ZWATTY ETTERS PA 328 37 M 1 30-39 2:02:34.96 8:45/M
4 JOSHUS ELY JERSEY SHORE PA 76 33 M 2 30-39 2:03:41.95 8:50/M
5 TIMOTHY FELEGIE 335 40 M 1 40-49 2:05:28.06 8:58/M
6 ERNEST GLICK NARVON PA 99 35 M 3 30-39 2:08:42.78 9:12/M
7 MIKE DELORSO MIFFLINBURG PA 67 33 M 4 30-39 2:09:24.43 9:15/M
8 STEPHEN HAZLETT WELLSBORO PA 123 39 M 5 30-39 2:09:32.53 9:15/M
9 MEIRA MINARD STATE COLLEGE PA 196 44 F 1 Top Fin 2:13:07.70 9:31/M
10 NICOLE YOKUM STATE COLLEGE PA 327 34 F 1 30-39 2:15:31.02 9:41/M
11 TYLER WAGNER SOUTH WILLIAMSPORT PA 311 29 M 1 20-29 2:16:37.27 9:46/M
12 JUSTIN BEATTY SOUTH WILLIAMSPORT PA 15 39 M 6 30-39 2:16:54.77 9:47/M
13 SCOTT FALKNER BELLEVILLE PA 81 47 M 2 40-49 2:17:13.86 9:48/M
14 ADAM WIBLE LEWISTOWN PA 320 31 M 7 30-39 2:17:50.77 9:51/M
15 CAROLE DUDUKOVICH PORT MATILDA PA 69 51 F 1 Top Fin 2:18:11.31 9:52/M
16 JOE QUATRINI ATHENS PA 228 41 M 3 40-49 2:19:22.02 9:57/M
17 STEVE TEMPLIN MUNCY PA 293 45 M 4 40-49 2:21:05.27 10:05/M
18 MARK NENSTIEL 331 36 M 8 30-39 2:22:06.25 10:09/M
19 MARK STAMM JERSEY SHORE PA 280 43 M 5 40-49 2:22:24.26 10:10/M
20 ANDY BELL LEWISBERRY PA 19 45 M 6 40-49 2:24:11.10 10:18/M
21 JULIE PENTICO WILLIAMSPORT PA 215 50 F 1 50-59 2:26:58.72 10:30/M
22 TRISTAN AMELL 338 M 1 0- 0 2:27:10.15 10:31/M
23 BOB BAUER BROCKWAY PA 12 45 M 7 40-49 2:27:36.91 10:33/M
24 SEAN MACMILLEN JERSEY SHORE PA 6 44 M 8 40-49 2:27:47.27 10:33/M
25 RYAN GROCHAL HARDING PA 103 35 M 9 30-39 2:28:27.47 10:36/M
26 TIM SPIGELMYER MC CLURE PA 277 53 M 1 50-59 2:30:42.01 10:46/M
27 MIKE RANDALL TOWANDA PA 232 49 M 9 40-49 2:30:52.76 10:47/M
28 JASON SGRO NEWVILLE PA 253 40 M 10 40-49 2:31:27.25 10:49/M
29 JESSE LAPP DUNDEE NY 173 27 M 2 20-29 2:32:51.06 10:55/M
30 LISA FISHER COGAN STATION PA 84 34 F 2 30-39 2:32:57.98 10:56/M
31 NATHAN ESH PENN YAN NY 77 24 M 3 20-29 2:35:04.66 11:05/M
32 BECKY KOSEK WELLSBORO PA 164 37 F 3 30-39 2:35:20.25 11:06/M
33 JOSEPH ADAMS YEAGERTOWN PA 1 35 M 10 30-39 2:36:52.75 11:12/M
34 LAURA HENSLER COGAN STATION PA 126 36 F 4 30-39 2:39:43.41 11:25/M
35 STEPHEN STOLTZFUS PENN YAN NY 283 21 M 4 20-29 2:40:11.00 11:27/M
36 SHAWN BROWN ROME PA 37 42 M 11 40-49 2:40:18.75 11:27/M
37 CRAIG FLEMING STATE COLLEGE PA 85 46 M 12 40-49 2:40:25.00 11:28/M
38 CHRISTOPHER FALKNER BELLEVILLE PA 80 22 M 5 20-29 2:41:00.75 11:30/M
39 AMY KRATZER BEAVERTOWN PA 167 38 F 5 30-39 2:41:10.70 11:31/M
40 LARIE HALL MORRISDALE PA 117 49 F 1 40-49 2:41:13.50 11:31/M
41 TROY MILLER JULIAN PA 195 48 M 13 40-49 2:41:24.71 11:32/M
42 JASON KOBBE TUNKHANNOCK PA 160 42 M 14 40-49 2:42:45.90 11:38/M
43 GEORGE CAMP LEWISTOWN PA 39 57 M 2 50-59 2:42:55.05 11:38/M
44 CHRIS KURIGA DUBOISTOWN PA 170 40 M 15 40-49 2:44:28.99 11:45/M
45 MICHAEL RANCK ORWIGSBURG PA 231 67 M 1 60-69 2:45:00.46 11:47/M
46 HELENE STRUTKO DALLAS PA 288 39 F 6 30-39 2:48:08.47 12:01/M
47 LORI KINGSLEY WYSOX PA 154 52 F 2 50-59 2:51:32.55 12:15/M
48 JOHN SHAFFER JERSEY SHORE PA 257 47 M 16 40-49 2:51:32.73 12:15/M
49 LUCAS NICHOLS TROY PA 208 20 M 6 20-29 2:52:42.15 12:20/M
50 JODY WEIDNER GILLETT PA 314 53 M 3 50-59 2:53:52.48 12:25/M
51 KAITLYN SINGER MILLVILLE PA 264 29 F 1 20-29 2:54:12.61 12:27/M
52 RAYMOND KRISTOFIK JULIAN PA 168 61 M 2 60-69 2:54:28.65 12:28/M
53 DAN KOSSACK NEW WILMINGTON PA 165 55 M 4 50-59 2:54:51.98 12:29/M
54 ED PRY WILLIAMSPORT PA 226 48 M 17 40-49 2:55:33.19 12:32/M
55 JODY DEWALD MILLVILLE PA 68 49 M 18 40-49 2:56:37.70 12:37/M
56 WILLIAM SCHLORFF LOCK HAVEN PA 251 54 M 5 50-59 2:56:50.91 12:38/M
57 TERESA BARNES WILLIAMSPORT PA 10 46 F 2 40-49 2:57:13.22 12:40/M
58 ASHLYN WERT MCELHATTAN PA 318 18 F 1 16-19 2:58:20.39 12:44/M
59 JASON BOGLE COGAN STATION PA 28 41 M 19 40-49 2:58:55.08 12:47/M
60 MICHELE BROWN TUNKHANNOCK PA 36 47 F 3 40-49 2:59:57.87 12:51/M
61 MARK KNAPP GIBSONIA PA 159 56 M 6 50-59 3:00:31.14 12:54/M
62 CHRISTOPHER ROSSITER ELMIRA NY 244 33 M 11 30-39 3:00:48.83 12:55/M
63 SUE REESE BELLEFONTE PA 238 58 F 3 50-59 3:01:16.80 12:57/M
64 GEOFFREY POLLACK ELMIRA NY 219 56 M 7 50-59 3:04:22.72 13:10/M
65 JENNIFER HOUSEKNECHT WILLIAMSPORT PA 139 39 F 7 30-39 3:06:01.72 13:17/M
66 STEPHEN BECKMAN MUNCY PA 16 38 M 12 30-39 3:07:08.16 13:22/M
67 KIMBERLY SLUSSER MILLERTON PA 269 41 F 4 40-49 3:07:50.47 13:25/M
68 BRYANN BINGAMAN WILLIAMSPORT PA 24 28 M 7 20-29 3:07:58.22 13:26/M
69 ROBERT VANDERPOOL TOWANDA PA 302 46 M 20 40-49 3:08:38.22 13:28/M
70 DAVE SLUSSER MILLERTON PA 267 42 M 21 40-49 3:08:53.47 13:30/M
71 GARY REARICK JR MUNCY PA 236 45 M 22 40-49 3:09:52.47 13:34/M
72 KAREN PROVENCHER GLENS FALLS NY 225 63 F 1 60-69 3:11:12.85 13:39/M
73 NICOLAS SLUIS-CREMER PITTSBURGH PA 265 48 M 23 40-49 3:11:52.62 13:42/M
74 KAREN MILLER PORT MATILDA PA 193 53 F 4 50-59 3:13:13.42 13:48/M
75 CHRISTOPHER COON TOWANDA PA 53 31 M 13 30-39 3:13:27.61 13:49/M
76 PHILIP HORNE GOULDSBORO PA 137 54 M 8 50-59 3:15:58.31 14:00/M
77 RUIE BUTLER MONTOURSVILLE PA 38 37 F 8 30-39 3:16:03.71 14:00/M
78 MELISSA WALTER BEAVERTOWN PA 312 50 F 5 50-59 3:17:18.67 14:06/M
79 MATTHEW GORSLINE ATHENS PA 100 14 M 1 1-15 3:18:14.67 14:10/M
80 JACOB HENRY SAYRE PA 124 17 M 1 16-19 3:18:33.11 14:11/M
81 BURDETT PORTER SAYRE PA 223 56 M 9 50-59 3:18:41.42 14:12/M
82 ROBBIE RISLEY OLYPHANT PA 243 35 M 14 30-39 3:19:21.64 14:14/M
83 TABBY DUNN MONROETON PA 71 33 F 9 30-39 3:19:22.20 14:14/M
84 ANGIE HUNTER LINDEN PA 141 35 F 10 30-39 3:20:36.20 14:20/M
85 GINA WERT MC ELHATTAN PA 319 52 F 6 50-59 3:21:42.28 14:24/M
86 VANCE COHICK WILLIAMSPORT PA 47 43 M 24 40-49 3:24:50.45 14:38/M
87 EARL CUNNINGHAM OWEGO NY 61 41 M 25 40-49 3:25:21.81 14:40/M
88 ELIZABETH SHAFFER JERSEY SHORE PA 256 15 F 1 1-15 3:26:09.70 14:44/M
89 STEVEN FANTECHI WEEDVILLE PA 83 50 M 10 50-59 3:26:11.34 14:44/M
90 SANDY BEIDEMAN WELLSBORO PA 18 41 F 5 40-49 3:28:03.14 14:52/M
91 BECKY CLAWSON LANCASTER PA 45 33 F 11 30-39 3:28:40.44 14:54/M
92 LONI RISLEY OLYPHANT PA 242 37 F 12 30-39 3:29:04.62 14:56/M
93 KRISTIN MANHART LOCK HAVEN PA 180 27 F 2 20-29 3:29:22.89 14:57/M
94 MISTY TROWBRIDGE LOCK HAVEN PA 298 37 F 13 30-39 3:30:11.17 15:01/M
95 DOUGLAS JOHNS ETTERS PA 144 39 M 15 30-39 3:31:34.57 15:07/M
96 BRIAN POTTER TOWANDA PA 224 54 M 11 50-59 3:33:07.08 15:13/M
97 SAMANTHA WEAVER JERSEY SHORE PA 313 45 F 6 40-49 3:33:43.39 15:16/M
98 GREG HOUCK BATH NY 138 37 M 16 30-39 3:34:30.19 15:19/M
99 JENN MCCONNELL WATERVILLE PA 186 42 F 7 40-49 3:36:42.41 15:29/M
100 ROBERT RENNINGER WILLIAMSPORT PA 239 64 M 3 60-69 3:36:49.89 15:29/M
 
Place Name City Bib No Age Gender Age Group Total Time Pace
101 REBECCA MURDOCK MIDDLEBURY CENTER PA 206 39 F 14 30-39 3:37:13.65 15:31/M
102 CARLA TARDIEU WELLSBORO PA 292 48 F 8 40-49 3:41:12.93 15:48/M
103 JEFFREY LOVELL WILLIAMSPORT PA 176 54 M 12 50-59 3:41:55.68 15:51/M
104 BILL MCCONNELL WATERVILLE PA 185 42 M 26 40-49 3:42:47.93 15:55/M
105 CAREEN SHAFER MAPLETON DEPOT PA 255 43 F 9 40-49 3:43:05.21 15:56/M
106 ALLISON BOEHLER WILLIAMSPORT PA 27 24 F 3 20-29 3:43:16.41 15:57/M
107 JASON HENRY SAYRE PA 125 39 M 17 30-39 3:44:19.08 16:01/M
108 SHANNON COSENTINE TROUT RUN PA 56 43 F 10 40-49 3:45:17.11 16:06/M
109 STEPHANIE LOVELL COGAN STATION PA 177 47 F 11 40-49 3:45:25.17 16:06/M
110 KATHLEEN HOLMES WILLIAMSPORT PA 135 36 F 15 30-39 3:45:25.42 16:06/M
111 KAREN GROSS AUGUSTA ME 104 61 F 2 60-69 3:47:06.91 16:13/M
112 KIMBERLY HAZLETT WELLSBORO PA 122 41 F 12 40-49 3:47:56.42 16:17/M
113 STEPHANIE MORROW HARRISBURG PA 201 45 F 13 40-49 3:48:47.67 16:21/M
114 DALLAS BEACHEL DANVILLE PA 13 35 M 18 30-39 3:50:30.84 16:28/M
115 KEITH QUERRY HUNTINGDON PA 230 33 M 19 30-39 3:50:30.92 16:28/M
116 STEPHANIE MCDERMOTT LOCK HAVEN PA 187 42 F 14 40-49 3:53:53.66 16:42/M
117 JAMIE EAKIN JERSEY SHORE PA 73 38 F 16 30-39 3:55:55.16 16:51/M
118 MELONIE SAPPE DUNMORE PA 249 35 F 17 30-39 3:56:00.53 16:51/M
119 ANGELA BIERLY WATERVILLE PA 21 38 F 18 30-39 3:56:12.91 16:52/M
120 PATTI KOSSACK NEW WILMINGTON PA 166 55 F 7 50-59 3:57:17.63 16:57/M
121 PETE GSTALDER MONTOURSVILLE PA 106 64 M 4 60-69 3:57:53.75 17:00/M
122 ROSEMARIE FOSTER LEWISBERRY PA 87 55 F 8 50-59 3:59:14.91 17:05/M
123 MERRILL SHOWERS NEW COLUMBIA PA 263 56 M 13 50-59 3:59:21.41 17:06/M
124 SCOTT LIPPY HANOVER PA 174 65 M 5 60-69 4:00:44.04 17:12/M
125 DAVID APKER WILLIAMSPORT PA 3 41 M 27 40-49 4:01:53.05 17:17/M
126 PAM REARICK MUNCY PA 235 63 F 3 60-69 4:03:56.69 17:25/M
127 NICHOLAS JANSEN COGAN STATION PA 143 37 M 20 30-39 4:08:08.23 17:43/M
128 JOAN WELFLING LOCK HAVEN PA 316 60 F 4 60-69 4:08:14.40 17:44/M
129 NICHOLE ALBERS TOWANDA PA 2 26 F 4 20-29 4:13:34.07 18:07/M
130 RACHAEL FRAVEL JERSEY SHORE PA 90 23 F 5 20-29 4:14:07.64 18:09/M
131 HAROLD COLE WILLIAMSPORT PA 49 45 M 28 40-49 4:16:10.64 18:18/M
132 MICHAEL HAFFLEY LOCK HAVEN PA 110 50 M 14 50-59 4:16:10.66 18:18/M
133 SUE KING MONTOURSVILLE PA 153 46 F 15 40-49 4:17:06.64 18:22/M
134 MANDY DURLAND WILLIAMSPORT PA 72 38 F 19 30-39 4:17:07.89 18:22/M
135 ADELL WILLIAMS ROARING BRANCH PA 321 39 F 20 30-39 4:18:23.78 18:27/M
136 GREGORY HARDING CUMBERLAND MD 118 66 M 6 60-69 4:20:31.13 18:37/M
137 KASEY BLESH LOCK HAVEN PA 26 28 F 6 20-29 4:20:56.31 18:38/M
138 CARL UNDERCOFLER WOODLAND PA 301 80 M 1 70-99 4:22:52.78 18:47/M
139 JANE KONE HOWARD PA 162 64 F 5 60-69 4:22:53.14 18:47/M
140 DOUG BOWER WILLIAMSPORT PA 30 58 M 15 50-59 4:23:43.05 18:50/M
141 JANANN TODD WILLIAMSPORT PA 296 50 F 9 50-59 4:29:47.85 19:16/M
142 TERRI CAMPBELL FEASTERVILLE TREVOSE PA 41 58 F 10 50-59 4:33:16.12 19:31/M
143 LYNETTE BOWER WILLIAMSPORT PA 31 57 F 11 50-59 4:34:33.09 19:37/M
144 VANESSA CHAMBERLAIN LANCASTER PA 43 46 F 16 40-49 4:45:45.25 20:25/M
145 CARLI MOUA LANCASTER PA 203 36 F 21 30-39 4:45:45.61 20:25/M
146 LEE KELCHNER MILLVILLE PA 148 54 M 16 50-59 4:46:04.86 20:26/M
147 KAY KELCHNER MILLVILLE PA 147 59 F 12 50-59 4:46:05.11 20:26/M
148 PATRICK VILLELLA PUNXSUTAWNEY PA 307 54 M 17 50-59 5:00:04.96 21:26/M
149 KRISTIE WELLIVER DANVILLE PA 317 41 F 17 40-49 5:25:45.31 23:16/M
150 REBECCA CORNISH LEWISBURG PA 54 38 F 22 30-39 5:26:14.73 23:18/M
151 DONNA WAGNER HARRISBURG PA 309 50 F 13 50-59 5:29:06.76 23:30/M
Top  

Chief Wetona 7 Mile Challenge

Place Name City Bib No Age Gender Age Group Total Time Pace
1 JOHN MARENKOVIC SLIPPERY ROCK PA 181 20 M 1 Top Fin 45:54.54 6:33/M
2 SEAN SQUIRE GRAND ISLAND NY 279 38 M 1 30-39 50:16.54 7:11/M
3 COLLIN WRIGHT WAVERLY NY 324 15 M 1 1-15 52:49.26 7:33/M
4 KEEGAN BEARD TROY PA 14 19 M 1 16-19 54:59.46 7:51/M
5 LUKE AUER NEW ALBANY PA 7 18 M 2 16-19 56:09.48 8:01/M
6 PAUL HAIGES SAYRE PA 114 50 M 1 Top Fin 57:24.16 8:12/M
7 AARON CRIST MILTON PA 57 44 M 1 40-49 58:13.44 8:19/M
8 MATT BORDAS PHILIPSBURG PA 29 18 M 3 16-19 59:30.05 8:30/M
9 RYAN NAPP TOWANDA PA 207 40 M 2 40-49 1:00:00.20 8:34/M
10 LUCAS STONE JOHNSON CITY NY 284 38 M 2 30-39 1:00:30.78 8:39/M
11 STACEY HIBBLER LOCK HAVEN PA 130 54 M 1 50-59 1:02:11.03 8:53/M
12 BENJAMIN FALKNER BELLEVILLE PA 79 19 M 4 16-19 1:02:17.03 8:54/M
13 JOEL HUNT SAYRE PA 140 40 M 3 40-49 1:02:23.42 8:55/M
14 RON LOZOWSKI WARREN GLEN NJ 178 48 M 4 40-49 1:04:32.03 9:13/M
15 ADAM BRENNAN TROUT RUN PA 33 37 M 3 30-39 1:04:53.17 9:16/M
16 JOSHUA MCCLELLAND SAYRE PA 184 16 M 5 16-19 1:04:57.03 9:17/M
17 CINDY SWANK WILLIAMSPORT PA 289 52 F 1 Top Fin 1:05:00.28 9:17/M
18 MONICA AUBERZINSKY ATGLEN PA 5 20 F 1 20-29 1:06:11.03 9:27/M
19 BILL MOSLER 336 M 1 0- 0 1:06:39.28 9:31/M
20 SHANNON OAKES HORSEHEADS NY 212 41 F 1 Top Fin 1:07:25.03 9:38/M
21 TRACY WRIGHT WAVERLY NY 325 43 F 1 40-49 1:07:53.77 9:42/M
22 MELISSA SQUIRE GRAND ISLAND NY 278 37 F 1 30-39 1:09:08.01 9:53/M
23 JOHN PARKS III MONTOURSVILLE PA 214 45 M 5 40-49 1:09:13.09 9:53/M
24 HUNTER BIERLY WATERVILLE PA 23 17 M 6 16-19 1:09:13.72 9:53/M
25 TAYLOR GUELICH STATE COLLEGE PA 107 19 F 1 16-19 1:10:46.87 10:07/M
26 JASON KOBBE TUNKHANNOCK PA 161 18 M 7 16-19 1:13:03.07 10:26/M
27 NORMAN STRAUSS IV ATHENS PA 287 12 M 2 1-15 1:13:17.02 10:28/M
28 CALEB MCCLELLAND SAYRE PA 183 18 M 8 16-19 1:14:12.77 10:36/M
29 CALLISTA HAFLETT ELMIRA NY 111 27 F 2 20-29 1:14:15.27 10:36/M
30 GRANT RIEHL PENN YAN NY 240 17 M 9 16-19 1:14:17.73 10:37/M
31 DAN ROSSITER SAYRE PA 245 36 M 4 30-39 1:14:31.52 10:39/M
32 AMANDA COOLEY WYALUSING PA 51 36 F 2 30-39 1:14:34.36 10:39/M
33 TRAVIS COOLEY WYALUSING PA 52 37 M 5 30-39 1:14:34.52 10:39/M
34 RICHARD GREENE LOCK HAVEN PA 102 48 M 6 40-49 1:15:13.52 10:45/M
35 ERIN KURIGA WILLIAMSPORT PA 171 41 F 2 40-49 1:15:21.62 10:46/M
36 DAVE DECKER GILLETT PA 66 59 M 2 50-59 1:15:28.93 10:47/M
37 KERRI STRAUSS ATHENS PA 286 37 F 3 30-39 1:15:55.02 10:51/M
38 TRACY KEMMERER WILLIAMSPORT PA 150 47 F 3 40-49 1:16:09.50 10:53/M
39 TERESA BLEGGI WELLSBORO PA 25 48 F 4 40-49 1:16:13.76 10:53/M
40 JESSICA FLYNN SAYRE PA 86 38 F 4 30-39 1:17:20.57 11:03/M
41 LEN MATYSCZAK WYOMING PA 182 67 M 1 60-69 1:18:01.18 11:09/M
42 KELLY HIBBLER LOCK HAVEN PA 129 50 F 1 50-59 1:19:50.29 11:24/M
43 STACEY FALKNER BELLEVILLE PA 82 47 F 5 40-49 1:20:17.67 11:28/M
44 MATT SPIGELMYER SPRING MILLS PA 276 55 M 3 50-59 1:20:32.70 11:30/M
45 REBECCA TERRY EAST SMITHFIELD PA 294 24 F 3 20-29 1:20:36.02 11:31/M
46 JOE SHORE ROARING BRANCH PA 262 28 M 1 20-29 1:20:45.70 11:32/M
47 KAREN HARTMAN ELMIRA NY 120 44 F 6 40-49 1:21:02.02 11:35/M
48 STEFANI TSIRIGOTIS TIOGA PA 300 35 F 5 30-39 1:21:57.51 11:42/M
49 LAURA BRENNAN TROUT RUN PA 34 35 F 6 30-39 1:22:12.99 11:45/M
50 CHELSEA PURCELL MIFFLINBURG PA 227 27 F 4 20-29 1:22:16.01 11:45/M
51 MICHAEL HILDEBRANDT SAYRE PA 131 50 M 4 50-59 1:23:10.65 11:53/M
52 JOHN AUBERZINSKY ATGLEN PA 4 48 M 7 40-49 1:24:24.26 12:03/M
53 JOHN TSIRIGOTIS TIOGA PA 299 33 M 6 30-39 1:24:34.26 12:05/M
54 KELSEY KOONTZ BEDFORD PA 163 21 F 5 20-29 1:25:28.49 12:13/M
55 KAYLA SAXON TOWANDA PA 250 29 F 6 20-29 1:25:57.71 12:17/M
56 PHILIP KIESSLING WILLIAMSPORT PA 152 50 M 5 50-59 1:26:24.94 12:21/M
57 PAM HERLAN LOWMAN NY 128 52 F 2 50-59 1:26:41.76 12:23/M
58 BETH HERBST SAYRE PA 127 49 F 7 40-49 1:26:41.77 12:23/M
59 MICHELE QUATRINI ATHENS PA 229 42 F 8 40-49 1:27:16.01 12:28/M
60 ROBERT KERN BEAVER DAMS, NY 151 74 M 1 70-99 1:27:57.62 12:34/M
61 GARY REARICK MUNCY PA 234 64 M 2 60-69 1:28:05.15 12:35/M
62 NANCY HAKES COGAN STATION PA 116 40 F 9 40-49 1:28:16.50 12:37/M
63 SHANNON VANSKIVER ERIN NY 306 48 F 10 40-49 1:29:04.25 12:43/M
64 KIMBERLY VANSKIVER ERIN NY 305 48 F 11 40-49 1:29:04.45 12:43/M
65 VALERIE DUFF WELLSBORO PA 70 44 F 12 40-49 1:29:08.50 12:44/M
66 CALLIE GENSEL CANTON PA 94 28 F 7 20-29 1:29:26.39 12:47/M
67 AUDREY SMITH WEST DECATUR PA 271 14 F 1 1-15 1:29:42.26 12:49/M
68 LEIGH TRASCO ULSTER PA 297 50 F 3 50-59 1:30:16.48 12:54/M
69 RACHEL KIRK WILLIAMSPORT PA 155 39 F 7 30-39 1:32:13.75 13:10/M
70 REBECCA RUSCZYK SOUTH WILLIAMSPORT PA 247 31 F 8 30-39 1:32:32.75 13:13/M
71 RUTH MCGUIRE LOCK HAVEN PA 189 46 F 13 40-49 1:32:48.68 13:15/M
72 AIDEN SMITH WEST DECATUR PA 270 13 M 3 1-15 1:35:04.68 13:35/M
73 ROBERT BAGULEY LOCK HAVEN PA 8 63 M 3 60-69 1:35:56.20 13:42/M
74 JEREMY SMITH WEST DECATUR PA 272 46 M 8 40-49 1:35:57.20 13:42/M
75 MICHAEL VANHORN ROARING BRANCH PA 303 56 M 6 50-59 1:36:17.91 13:45/M
76 AUSTIN REARICK MUNCY PA 233 12 M 4 1-15 1:36:36.25 13:48/M
77 MEG WUKOVITZ CORNING NY 326 34 F 9 30-39 1:36:55.24 13:51/M
78 TRAVIS STIFFLER JERSEY SHORE PA 282 13 M 5 1-15 1:37:06.75 13:52/M
79 ANDREA KUNTZ WELLSBORO PA 169 27 F 8 20-29 1:37:09.51 13:53/M
80 PAUL NOLL LOCK HAVEN PA 209 45 M 9 40-49 1:37:41.91 13:57/M
81 KIERSTIN KEMMERER WILLIAMSPORT PA 149 24 F 9 20-29 1:37:50.75 13:59/M
82 SALLY VILLELLA PUNXSUTAWNEY PA 308 60 F 1 60-69 1:38:23.73 14:03/M
83 MEGAN MILLER JULIAN PA 194 48 F 14 40-49 1:38:28.18 14:04/M
84 ANDY COSENTINE TROUT RUN PA 55 47 M 10 40-49 1:38:38.96 14:05/M
85 RENEE SHAY SAYRE PA 259 46 F 15 40-49 1:39:24.61 14:12/M
86 CHARLIE SNOOK JERSEY SHORE PA 273 10 M 6 1-15 1:39:39.19 14:14/M
87 JADE OAKES JERSEY SHORE PA 211 42 F 16 40-49 1:39:39.80 14:14/M
88 DAWN STORMS WILLIAMSPORT PA 285 42 F 17 40-49 1:39:59.15 14:17/M
89 MISTY JO MORSE MONROETON PA 202 41 F 18 40-49 1:40:25.75 14:21/M
90 MINDY FRITZ SUNBURY PA 92 39 F 10 30-39 1:40:44.25 14:23/M
91 COLLEEN CHILSON ATHENS PA 44 40 F 19 40-49 1:40:47.77 14:24/M
92 MELISSA JACKSON JERSEY SHORE PA 142 37 F 11 30-39 1:40:53.89 14:25/M
93 MAX PORTANOVA STATE COLLEGE PA 221 8 M 7 1-15 1:41:11.95 14:27/M
94 SIMON PORTANOVA STATE COLLEGE PA 222 8 M 8 1-15 1:41:13.57 14:28/M
95 MICHELE HOBBS PENSACOLA FL 133 48 F 20 40-49 1:41:32.24 14:30/M
96 CHARLENE MCSPARRON SAYRE PA 190 43 F 21 40-49 1:41:40.75 14:31/M
97 ALISON PORTANOVA STATE COLLEGE PA 220 46 F 22 40-49 1:41:58.00 14:34/M
98 TRAVIS DAY SABINSVILLE PA 65 29 M 2 20-29 1:42:35.35 14:39/M
99 CASEY DAY SABINSVILLE PA 64 23 F 10 20-29 1:42:35.96 14:39/M
100 KENNEDY SNOOK JERSEY SHORE PA 274 14 F 2 1-15 1:43:47.00 14:50/M
 
Place Name City Bib No Age Gender Age Group Total Time Pace
101 MICHAEL HATT JERSEY SHORE PA 121 37 M 7 30-39 1:43:47.05 14:50/M
102 BETH HILL SOUTH WILLIAMSPORT PA 132 56 F 4 50-59 1:45:40.87 15:06/M
103 KAREY WOLFE MILTON PA 322 25 F 11 20-29 1:45:50.74 15:07/M
104 RICK CRUZ ULSTER PA 60 56 M 7 50-59 1:46:00.01 15:09/M
105 ILA RAE MICHAEL MUNCY PA 191 56 F 5 50-59 1:46:00.21 15:09/M
106 PIPER EBERLING BELLEFONTE PA 75 10 F 3 1-15 1:46:48.91 15:15/M
107 LUKE EBERLING BELLEFONTE PA 74 43 M 11 40-49 1:46:48.91 15:15/M
108 BO HAGAMAN LOCK HAVEN PA 112 46 M 12 40-49 1:46:52.35 15:16/M
109 JENNIFER HAGAMAN LOCK HAVEN PA 113 44 F 23 40-49 1:46:52.36 15:16/M
110 BARB MORGAN TIOGA PA 198 73 F 1 70-99 1:47:19.49 15:20/M
111 NANETTE GERGEL TROY PA 95 51 F 6 50-59 1:47:39.89 15:23/M
112 THOMAS GERGEL TROY PA 96 46 M 13 40-49 1:47:40.24 15:23/M
113 MICHELLE SHEDDEN CANTON PA 260 54 F 7 50-59 1:47:52.49 15:25/M
114 ELISA MACMILLEN JERSEY SHORE PA 179 32 F 12 30-39 1:49:05.92 15:35/M
115 ALEXIS WATKINS 333 11 F 4 1-15 1:49:06.12 15:35/M
116 HEATHER CROWELL MUNCY PA 58 45 F 24 40-49 1:51:07.99 15:52/M
117 CORY GSTALDER 337 M 2 0- 0 1:51:46.78 15:58/M
118 DICK MORGAN TIOGA PA 199 75 M 2 70-99 1:52:34.66 16:05/M
119 JANICE GRAY MILL HALL PA 101 55 F 8 50-59 1:54:08.19 16:18/M
120 DEBRA MORIN MUNCY PA 200 61 F 2 60-69 1:54:08.19 16:18/M
121 CRAIG BIERLY WATERVILLE PA 22 49 M 14 40-49 1:54:39.43 16:23/M
122 TIMOTHY SWIFT MILL HALL PA 291 45 M 15 40-49 1:56:35.90 16:39/M
123 RHYS SWIFT MILL HALL PA 290 10 M 9 1-15 1:56:36.10 16:39/M
124 ALEXANDRIA GSTALDER MONTOURSVILLE PA 105 29 F 12 20-29 1:57:21.73 16:46/M
125 MARY DAUBERMAN BELLEFONTE PA 63 54 F 9 50-59 1:59:14.47 17:02/M
126 BETTINA CAMPBELL TOWANDA PA 40 51 F 10 50-59 1:59:35.73 17:05/M
127 TINA WOODWARD GRANVILLE SUMMIT PA 323 52 F 11 50-59 1:59:35.73 17:05/M
128 GINA HAFFLEY LOCK HAVEN PA 109 53 F 12 50-59 2:02:48.97 17:33/M
129 LIZ TERWILLIGER WARREN CENTER PA 295 45 F 25 40-49 2:03:08.90 17:35/M
130 SHERRY VANHORN ROARING BRANCH PA 304 53 F 13 50-59 2:03:10.72 17:36/M
131 ANN MARIE CROWLEY WELLSBORO PA 59 48 F 26 40-49 2:03:14.97 17:36/M
132 BUFFY KATHERMAN LOCK HAVEN PA 146 46 F 27 40-49 2:06:41.74 18:06/M
133 LISA BATES MAINESBURG PA 11 44 F 28 40-49 2:06:54.77 18:08/M
134 KAMRYN SLUSSER MILLERTON PA 268 8 F 5 1-15 2:07:18.00 18:11/M
135 KEYERA HAISCHER TIOGA PA 115 10 F 6 1-15 2:07:36.22 18:14/M
136 EVE-MARIE GILBERT ATHENS PA 98 49 F 29 40-49 2:10:34.52 18:39/M
137 MARY FRISBIE BARTON PA 91 50 F 14 50-59 2:13:11.96 19:02/M
138 EMMALYN CONTI LOCK HAVEN PA 50 34 F 13 30-39 2:20:09.94 20:01/M
139 JENNIFER FRANTZ CANANDAIGUA NY 88 26 F 13 20-29 2:20:09.94 20:01/M
140 ERIN MURDOCK JERSEY SHORE PA 204 30 F 14 30-39 2:22:50.86 20:24/M
141 PAIGE MURDOCK MIDDLEBURY CENTER PA 205 11 F 7 1-15 2:22:51.27 20:24/M
142 SEBRINA SHANKS TOWANDA PA 258 32 F 15 30-39 2:36:21.68 22:20/M